.
WxDataArchive / Data Records for 2014-01-08
2014-01-07 January 2014 2014-01-09

Data Records for Wednesday, 08 January 2014

Time	Temp	Chill	HIndex	Humid	Dewpt	 Wind 	HiWind	WindDir	Rain 	Barom 
-----	----	-----	------	-----	-----	------	------	-------	-----	----- 
00:00	7.4	7.4	7.4	73	0.6	0	3	248	0.00	30.401 
00:05	7.4	7.4	7.4	73	0.6	0	2	248	0.00	30.401 
00:10	7.4	7.4	7.4	73	0.6	0	2	248	0.00	30.401 
00:15	7.4	7.4	7.4	73	0.6	0	3	248	0.00	30.391 
00:20	7.4	7.4	7.4	73	0.6	0	1	248	0.00	30.391 
00:25	7.6	7.6	7.6	73	0.8	0	1	248	0.00	30.391 
00:30	7.6	7.6	7.6	73	0.8	0	1	248	0.00	30.387 
00:35	7.6	7.6	7.6	73	0.8	0	1	248	0.00	30.387 
00:40	7.6	7.6	7.6	73	0.8	0	2	248	0.00	30.387 
00:45	7.6	7.6	7.6	73	0.8	0	1	248	0.00	30.381 
00:50	7.6	7.6	7.6	73	0.8	0	1	248	0.00	30.381 
00:55	7.6	7.6	7.6	73	0.8	0	1	248	0.00	30.381 
01:00	7.4	7.4	7.4	73	0.6	0	1	248	0.00	30.374 
01:05	7.4	7.4	7.4	73	0.6	0	0	---	0.00	30.374 
01:10	7.4	7.4	7.4	73	0.6	0	1	248	0.00	30.374 
01:15	7.4	7.4	7.4	73	0.6	0	1	248	0.00	30.373 
01:20	7.4	7.4	7.4	73	0.6	0	0	---	0.00	30.373 
01:25	7.4	7.4	7.4	74	0.9	0	1	248	0.00	30.373 
01:30	7.4	7.4	7.4	74	0.9	0	1	248	0.00	30.371 
01:35	7.4	7.4	7.4	74	0.9	0	0	---	0.00	30.371 
01:40	7.4	7.4	7.4	73	0.6	0	1	248	0.00	30.371 
01:45	7.4	7.4	7.4	73	0.6	0	0	---	0.00	30.370 
01:50	7.4	7.4	7.4	73	0.6	0	1	248	0.00	30.370 
01:55	7.4	7.4	7.4	74	0.9	0	1	248	0.00	30.370 
02:00	7.4	7.4	7.4	73	0.6	0	0	---	0.00	30.366 
02:05	7.4	7.4	7.4	73	0.6	0	1	248	0.00	30.366 
02:10	7.4	7.4	7.4	73	0.6	0	1	248	0.00	30.366 
02:15	7.4	7.4	7.4	73	0.6	0	0	---	0.00	30.370 
02:20	7.4	7.4	7.4	73	0.6	0	0	---	0.00	30.370 
02:25	7.4	7.4	7.4	73	0.6	0	0	---	0.00	30.370 
02:30	7.2	7.2	7.2	74	0.7	0	0	---	0.00	30.379 
02:35	7.0	7.0	7.0	74	0.5	0	0	---	0.00	30.379 
02:40	6.9	6.9	6.9	74	0.4	0	0	---	0.00	30.379 
02:45	6.7	6.7	6.7	75	0.5	0	0	---	0.00	30.393 
02:50	6.5	6.5	6.5	75	0.3	0	0	---	0.00	30.393 
02:55	6.7	6.7	6.7	75	0.5	0	0	---	0.00	30.393 
03:00	6.7	6.7	6.7	75	0.5	0	0	---	0.00	30.395 
03:05	6.9	6.9	6.9	75	0.7	0	0	---	0.00	30.395 
03:10	6.9	6.9	6.9	76	1.0	0	0	---	0.00	30.395 
03:15	6.9	6.9	6.9	76	1.0	0	0	---	0.00	30.396 
03:20	6.9	6.9	6.9	76	1.0	0	0	---	0.00	30.396 
03:25	6.9	6.9	6.9	76	1.0	0	0	---	0.00	30.396 
03:30	6.7	6.7	6.7	76	0.8	0	0	---	0.00	30.402 
03:35	6.5	6.5	6.5	76	0.6	0	0	---	0.00	30.402 
03:40	6.3	6.3	6.3	76	0.4	0	0	---	0.00	30.402 
03:45	6.1	6.1	6.1	76	0.2	0	0	---	0.00	30.402 
03:50	6.0	6.0	6.0	76	0.1	0	0	---	0.00	30.402 
03:55	5.8	5.8	5.8	76	-0.1	0	0	---	0.00	30.402 
04:00	5.8	5.8	5.8	77	0.2	0	0	---	0.00	30.398 
04:05	5.6	5.6	5.6	77	-0.0	0	0	---	0.00	30.398 
04:10	5.6	5.6	5.6	77	-0.0	0	0	---	0.00	30.398 
04:15	5.4	5.4	5.4	77	-0.2	0	0	---	0.00	30.399 
04:20	5.2	5.2	5.2	77	-0.4	0	0	---	0.00	30.399 
04:25	5.0	5.0	5.0	77	-0.6	0	0	---	0.00	30.399 
04:30	4.8	4.8	4.8	77	-0.8	0	0	---	0.00	30.399 
04:35	4.7	4.7	4.7	77	-0.9	0	0	---	0.00	30.399 
04:40	4.7	4.7	4.7	78	-0.6	0	0	---	0.00	30.399 
04:45	4.8	4.8	4.8	78	-0.5	0	0	---	0.00	30.397 
04:50	5.0	5.0	5.0	79	-0.1	0	0	---	0.00	30.397 
04:55	5.4	5.4	5.4	79	0.3	0	0	---	0.00	30.397 
05:00	5.8	5.8	5.8	79	0.7	0	0	---	0.00	30.396 
05:05	6.3	6.3	6.3	79	1.2	0	0	---	0.00	30.396 
05:10	6.7	6.7	6.7	79	1.6	0	1	248	0.00	30.396 
05:15	7.0	7.0	7.0	79	1.9	0	1	248	0.00	30.385 
05:20	7.4	7.4	7.4	78	2.0	0	1	248	0.00	30.385 
05:25	7.6	7.6	7.6	78	2.2	0	1	248	0.00	30.385 
05:30	7.7	7.7	7.7	77	2.0	0	1	248	0.00	30.378 
05:35	7.9	7.9	7.9	77	2.2	0	1	248	0.00	30.378 
05:40	7.9	7.9	7.9	77	2.2	0	0	---	0.00	30.378 
05:45	8.1	8.1	8.1	77	2.4	0	0	---	0.00	30.379 
05:50	8.1	8.1	8.1	77	2.4	0	0	---	0.00	30.379 
05:55	8.1	8.1	8.1	77	2.4	0	0	---	0.00	30.379 
06:00	8.1	8.1	8.1	77	2.4	0	0	---	0.00	30.378 
06:05	8.3	8.3	8.3	77	2.6	0	0	---	0.00	30.378 
06:10	8.3	8.3	8.3	77	2.6	0	0	---	0.00	30.378 
06:15	8.4	8.4	8.4	77	2.7	0	0	---	0.00	30.376 
06:20	8.4	8.4	8.4	77	2.7	0	0	---	0.00	30.376 
06:25	8.4	8.4	8.4	77	2.7	0	0	---	0.00	30.376 
06:30	8.6	8.6	8.6	77	2.9	0	0	---	0.00	30.377 
06:35	8.6	8.6	8.6	77	2.9	0	0	---	0.00	30.377 
06:40	8.6	8.6	8.6	77	2.9	0	0	---	0.00	30.377 
06:45	8.8	8.8	8.8	77	3.1	0	0	---	0.00	30.379 
06:50	8.8	8.8	8.8	77	3.1	0	0	---	0.00	30.379 
06:55	8.6	8.6	8.6	77	2.9	0	0	---	0.00	30.379 
07:00	8.4	8.4	8.4	77	2.7	0	0	---	0.00	30.387 
07:05	8.3	8.3	8.3	77	2.6	0	0	---	0.00	30.387 
07:10	8.1	8.1	8.1	77	2.4	0	0	---	0.00	30.387 
07:15	7.9	7.9	7.9	77	2.2	0	0	---	0.00	30.393 
07:20	7.6	7.6	7.6	77	1.9	0	0	---	0.00	30.393 
07:25	7.4	7.4	7.4	77	1.7	0	0	---	0.00	30.393 
07:30	7.2	7.2	7.2	78	1.8	0	0	---	0.00	30.397 
07:35	7.2	7.2	7.2	78	1.8	0	0	---	0.00	30.397 
07:40	7.2	7.2	7.2	78	1.8	0	0	---	0.00	30.397 
07:45	7.2	7.2	7.2	78	1.8	0	0	---	0.00	30.402 
07:50	7.0	7.0	7.0	78	1.6	0	0	---	0.00	30.402 
07:55	6.9	6.9	6.9	78	1.5	0	0	---	0.00	30.402 
08:00	6.7	6.7	6.7	78	1.3	0	0	---	0.00	30.403 
08:05	6.5	6.5	6.5	79	1.4	0	0	---	0.00	30.403 
08:10	6.5	6.5	6.5	79	1.4	0	1	248	0.00	30.403 
08:15	6.7	6.7	6.7	79	1.6	0	1	248	0.00	30.406 
08:20	6.7	6.7	6.7	79	1.6	0	0	---	0.00	30.406 
08:25	6.7	6.7	6.7	79	1.6	0	0	---	0.00	30.406 
08:30	6.7	6.7	6.7	80	1.9	0	0	---	0.00	30.408 
08:35	7.0	7.0	7.0	80	2.2	0	0	---	0.00	30.408 
08:40	7.2	7.2	7.2	80	2.4	0	0	---	0.00	30.408 
08:45	7.6	7.6	7.6	80	2.7	0	0	---	0.00	30.413 
08:50	7.7	7.7	7.7	79	2.6	0	0	---	0.00	30.413 
08:55	7.9	7.9	7.9	79	2.8	0	0	---	0.00	30.413 
09:00	8.1	8.1	8.1	79	3.0	0	0	---	0.00	30.420 
09:05	8.4	8.4	8.4	79	3.3	0	1	248	0.00	30.420 
09:10	8.8	8.8	8.8	78	3.4	0	0	---	0.00	30.420 
09:15	9.0	9.0	9.0	78	3.6	0	0	---	0.00	30.420 
09:20	9.3	9.3	9.3	77	3.6	0	0	---	0.00	30.420 
09:25	9.5	9.5	9.5	77	3.8	0	0	---	0.00	30.420 
09:30	9.7	9.7	9.7	77	4.0	0	0	---	0.00	30.426 
09:35	9.7	9.7	9.7	76	3.7	0	1	248	0.00	30.426 
09:40	9.9	9.9	9.9	76	3.9	0	1	248	0.00	30.426 
09:45	10.4	10.4	10.4	76	4.4	0	1	248	0.00	30.432 
09:50	10.7	10.7	10.7	76	4.7	0	1	248	0.00	30.432 
09:55	11.1	11.1	11.1	75	4.8	0	1	248	0.00	30.432 
10:00	11.4	11.4	11.4	75	5.0	0	2	248	0.00	30.434 
10:05	11.9	11.9	11.9	75	5.5	0	1	248	0.00	30.434 
10:10	12.3	12.3	12.3	74	5.6	0	2	248	0.00	30.434 
10:15	12.6	12.6	12.6	74	5.9	0	1	248	0.00	30.435 
10:20	12.8	12.8	12.8	74	6.1	0	1	248	0.00	30.435 
10:25	12.9	12.9	12.9	73	5.9	0	1	248	0.00	30.435 
10:30	13.1	13.1	13.1	73	6.1	0	1	248	0.00	30.443 
10:35	13.3	13.3	13.3	73	6.3	0	2	248	0.00	30.443 
10:40	13.5	13.5	13.5	73	6.5	0	1	248	0.00	30.443 
10:45	13.8	13.8	13.8	73	6.8	0	1	248	0.00	30.437 
10:50	13.8	13.8	13.8	73	6.8	0	2	248	0.00	30.437 
10:55	13.8	13.8	13.8	72	6.5	0	2	248	0.00	30.437 
11:00	14.0	14.0	14.0	73	7.0	0	1	248	0.00	30.444 
11:05	14.1	14.1	14.1	73	7.1	0	1	248	0.00	30.444 
11:10	14.1	14.1	14.1	72	6.8	0	1	248	0.00	30.444 
11:15	14.3	14.3	14.3	72	7.0	0	1	248	0.00	30.441 
11:20	14.4	14.4	14.4	72	7.1	0	1	248	0.00	30.441 
11:25	14.8	14.8	14.8	72	7.4	0	1	248	0.00	30.441 
11:30	14.9	14.9	14.9	72	7.5	0	1	248	0.00	30.434 
11:35	15.1	15.1	15.1	72	7.7	0	1	248	0.00	30.434 
11:40	15.2	15.2	15.2	72	7.8	0	2	248	0.00	30.434 
11:45	15.4	15.4	15.4	72	8.0	0	2	248	0.00	30.428 
11:50	15.6	15.6	15.6	72	8.2	0	2	248	0.00	30.428 
11:55	15.7	15.7	15.7	72	8.3	0	1	248	0.00	30.428 
12:00	15.9	15.9	15.9	71	8.2	0	1	248	0.00	30.420 
12:05	16.2	16.2	16.2	71	8.5	0	2	248	0.00	30.420 
12:10	16.7	16.7	16.7	71	9.0	0	2	248	0.00	30.420 
12:15	16.7	16.7	16.7	70	8.6	1	3	248	0.00	30.409 
12:20	16.5	16.5	16.5	70	8.5	0	1	248	0.00	30.409 
12:25	16.5	16.5	16.5	70	8.5	0	1	248	0.00	30.409 
12:30	16.7	16.7	16.7	71	9.0	0	1	248	0.00	30.398 
12:35	17.0	17.0	17.0	70	8.9	0	1	248	0.00	30.398 
12:40	17.2	17.2	17.2	70	9.1	0	2	248	0.00	30.398 
12:45	17.3	17.3	17.3	70	9.2	0	3	248	0.00	30.396 
12:50	17.5	17.5	17.5	71	9.7	0	1	248	0.00	30.396 
12:55	17.7	17.7	17.7	70	9.6	0	2	248	0.00	30.396 
13:00	17.8	17.8	17.8	69	9.4	0	2	248	0.00	30.396 
13:05	18.1	18.1	18.1	69	9.7	0	2	248	0.00	30.396 
13:10	18.0	18.0	18.0	69	9.6	0	2	248	0.00	30.396 
13:15	18.0	18.0	18.0	69	9.6	1	3	248	0.00	30.395 
13:20	18.0	18.0	18.0	69	9.6	0	2	248	0.00	30.395 
13:25	17.8	17.8	17.8	69	9.4	1	3	248	0.00	30.395 
13:30	17.8	17.8	17.8	69	9.4	1	3	248	0.00	30.394 
13:35	17.5	17.5	17.5	69	9.1	0	2	248	0.00	30.394 
13:40	17.5	17.5	17.5	69	9.1	1	4	248	0.00	30.394 
13:45	17.7	17.7	17.7	70	9.6	0	1	248	0.00	30.394 
13:50	17.8	17.8	17.8	70	9.7	0	2	248	0.00	30.394 
13:55	17.8	17.8	17.8	69	9.4	0	1	248	0.00	30.394 
14:00	17.8	17.8	17.8	69	9.4	1	3	248	0.00	30.396 
14:05	18.0	18.0	18.0	69	9.6	0	2	248	0.00	30.396 
14:10	18.1	18.1	18.1	69	9.7	0	2	248	0.00	30.396 
14:15	18.1	18.1	18.1	69	9.7	1	3	248	0.00	30.396 
14:20	18.0	18.0	18.0	69	9.6	0	2	248	0.00	30.396 
14:25	18.0	18.0	18.0	69	9.6	0	2	248	0.00	30.396 
14:30	17.8	17.8	17.8	69	9.4	0	2	248	0.00	30.396 
14:35	17.8	17.8	17.8	70	9.7	0	1	248	0.00	30.396 
14:40	17.8	17.8	17.8	70	9.7	0	1	248	0.00	30.396 
14:45	17.7	17.7	17.7	70	9.6	0	1	248	0.00	30.396 
14:50	17.8	17.8	17.8	70	9.7	0	2	248	0.00	30.396 
14:55	17.8	17.8	17.8	70	9.7	0	1	248	0.00	30.396 
15:00	17.8	17.8	17.8	71	10.0	0	1	248	0.00	30.401 
15:05	17.8	17.8	17.8	70	9.7	0	2	248	0.00	30.401 
15:10	17.8	17.8	17.8	70	9.7	0	2	248	0.00	30.401 
15:15	17.7	17.7	17.7	71	9.9	0	1	248	0.00	30.409 
15:20	17.8	17.8	17.8	71	10.0	0	1	248	0.00	30.409 
15:25	17.8	17.8	17.8	71	10.0	0	1	248	0.00	30.409 
15:30	17.8	17.8	17.8	71	10.0	0	1	248	0.00	30.413 
15:35	17.5	17.5	17.5	71	9.7	0	2	248	0.00	30.413 
15:40	17.3	17.3	17.3	71	9.5	0	2	248	0.00	30.413 
15:45	17.2	17.2	17.2	72	9.8	0	1	248	0.00	30.427 
15:50	17.2	17.2	17.2	72	9.8	0	2	248	0.00	30.427 
15:55	17.0	17.0	17.0	72	9.6	0	2	248	0.00	30.427 
16:00	17.0	17.0	17.0	72	9.6	0	2	248	0.00	30.433 
16:05	16.9	16.9	16.9	72	9.5	0	1	248	0.00	30.433 
16:10	16.9	16.9	16.9	73	9.8	0	1	248	0.00	30.433 
16:15	16.7	16.7	16.7	73	9.6	0	1	248	0.00	30.442 
16:20	16.5	16.5	16.5	73	9.4	0	2	248	0.00	30.442 
16:25	16.4	16.4	16.4	73	9.3	0	2	248	0.00	30.442 
16:30	16.2	16.2	16.2	73	9.1	0	2	248	0.00	30.445 
16:35	16.2	16.2	16.2	73	9.1	0	1	248	0.00	30.445 
16:40	16.1	16.1	16.1	73	9.0	0	1	248	0.00	30.445 
16:45	16.1	16.1	16.1	73	9.0	0	1	248	0.00	30.452 
16:50	16.1	16.1	16.1	74	9.3	0	1	248	0.00	30.452 
16:55	16.1	16.1	16.1	74	9.3	0	1	248	0.00	30.452 
17:00	15.9	15.9	15.9	74	9.1	0	1	248	0.00	30.453 
17:05	15.9	15.9	15.9	74	9.1	0	1	248	0.00	30.453 
17:10	15.9	15.9	15.9	74	9.1	0	1	248	0.00	30.453 
17:15	15.9	15.9	15.9	74	9.1	0	1	248	0.00	30.457 
17:20	15.9	15.9	15.9	74	9.1	0	2	248	0.00	30.457 
17:25	15.7	15.7	15.7	74	8.9	0	2	248	0.00	30.457 
17:30	15.7	15.7	15.7	75	9.2	0	1	248	0.00	30.458 
17:35	15.7	15.7	15.7	74	8.9	0	2	248	0.00	30.458 
17:40	15.6	15.6	15.6	75	9.1	0	1	248	0.00	30.458 
17:45	15.6	15.6	15.6	75	9.1	0	1	248	0.00	30.458 
17:50	15.6	15.6	15.6	75	9.1	0	1	248	0.00	30.458 
17:55	15.6	15.6	15.6	75	9.1	0	1	248	0.00	30.458 
18:00	15.4	15.4	15.4	75	8.9	0	0	---	0.00	30.464 
18:05	15.4	15.4	15.4	75	8.9	0	1	248	0.00	30.464 
18:10	15.4	15.4	15.4	75	8.9	0	1	248	0.00	30.464 
18:15	15.2	15.2	15.2	75	8.7	0	1	248	0.00	30.467 
18:20	15.2	15.2	15.2	76	9.0	0	0	---	0.00	30.467 
18:25	15.2	15.2	15.2	76	9.0	0	0	---	0.00	30.467 
18:30	15.1	15.1	15.1	76	8.9	0	0	---	0.00	30.472 
18:35	15.1	15.1	15.1	76	8.9	0	0	---	0.00	30.472 
18:40	14.9	14.9	14.9	76	8.7	0	0	---	0.00	30.472 
18:45	14.8	14.8	14.8	76	8.6	0	0	---	0.00	30.482 
18:50	14.8	14.8	14.8	77	8.9	0	0	---	0.00	30.482 
18:55	14.6	14.6	14.6	77	8.7	0	0	---	0.00	30.482 
19:00	14.6	14.6	14.6	77	8.7	0	0	---	0.00	30.489 
19:05	14.4	14.4	14.4	77	8.5	0	0	---	0.00	30.489 
19:10	14.4	14.4	14.4	77	8.5	0	0	---	0.00	30.489 
19:15	14.4	14.4	14.4	77	8.5	0	0	---	0.00	30.492 
19:20	14.6	14.6	14.6	77	8.7	0	1	248	0.00	30.492 
19:25	14.6	14.6	14.6	77	8.7	0	0	---	0.00	30.492 
19:30	14.6	14.6	14.6	77	8.7	0	1	248	0.00	30.491 
19:35	14.8	14.8	14.8	77	8.9	0	0	---	0.00	30.491 
19:40	14.8	14.8	14.8	77	8.9	0	1	248	0.00	30.491 
19:45	14.8	14.8	14.8	77	8.9	0	1	248	0.00	30.492 
19:50	14.8	14.8	14.8	77	8.9	0	0	---	0.00	30.492 
19:55	14.9	14.9	14.9	77	9.0	0	0	---	0.00	30.492 
20:00	14.9	14.9	14.9	77	9.0	0	1	248	0.00	30.498 
20:05	14.8	14.8	14.8	77	8.9	0	0	---	0.00	30.498 
20:10	14.8	14.8	14.8	77	8.9	0	1	248	0.00	30.498 
20:15	14.6	14.6	14.6	76	8.4	0	1	248	0.00	30.499 
20:20	14.6	14.6	14.6	76	8.4	0	1	248	0.00	30.499 
20:25	14.6	14.6	14.6	75	8.1	0	0	---	0.00	30.499 
20:30	14.6	14.6	14.6	75	8.1	0	2	248	0.00	30.499 
20:35	14.4	14.4	14.4	75	8.0	0	1	248	0.00	30.499 
20:40	14.6	14.6	14.6	75	8.1	0	0	---	0.00	30.499 
20:45	14.6	14.6	14.6	75	8.1	0	1	248	0.00	30.505 
20:50	14.6	14.6	14.6	75	8.1	0	1	248	0.00	30.505 
20:55	14.6	14.6	14.6	75	8.1	0	1	248	0.00	30.505 
21:00	14.4	14.4	14.4	74	7.7	0	1	248	0.00	30.509 
21:05	14.4	14.4	14.4	74	7.7	0	1	248	0.00	30.509 
21:10	14.4	14.4	14.4	75	8.0	0	0	---	0.00	30.509 
21:15	14.4	14.4	14.4	75	8.0	0	0	---	0.00	30.510 
21:20	14.4	14.4	14.4	75	8.0	0	1	248	0.00	30.510 
21:25	14.4	14.4	14.4	74	7.7	0	1	248	0.00	30.510 
21:30	14.4	14.4	14.4	74	7.7	0	1	248	0.00	30.520 
21:35	14.3	14.3	14.3	74	7.6	0	1	248	0.00	30.520 
21:40	14.3	14.3	14.3	74	7.6	0	1	248	0.00	30.520 
21:45	14.3	14.3	14.3	74	7.6	0	0	---	0.00	30.530 
21:50	14.3	14.3	14.3	74	7.6	0	1	248	0.00	30.530 
21:55	14.3	14.3	14.3	74	7.6	0	0	---	0.00	30.530 
22:00	14.3	14.3	14.3	74	7.6	0	1	248	0.00	30.534 
22:05	14.3	14.3	14.3	74	7.6	0	0	---	0.00	30.534 
22:10	14.1	14.1	14.1	74	7.4	0	0	---	0.00	30.534 
22:15	14.1	14.1	14.1	74	7.4	0	0	---	0.00	30.532 
22:20	14.1	14.1	14.1	74	7.4	0	1	248	0.00	30.532 
22:25	14.1	14.1	14.1	74	7.4	0	0	---	0.00	30.532 
22:30	14.1	14.1	14.1	74	7.4	0	0	---	0.00	30.535 
22:35	14.1	14.1	14.1	74	7.4	0	0	---	0.00	30.535 
22:40	14.1	14.1	14.1	74	7.4	0	0	---	0.00	30.535 
22:45	14.1	14.1	14.1	74	7.4	0	0	---	0.00	30.541 
22:50	14.1	14.1	14.1	74	7.4	0	0	---	0.00	30.541 
22:55	14.0	14.0	14.0	74	7.3	0	0	---	0.00	30.541 
23:00	14.0	14.0	14.0	74	7.3	0	0	---	0.00	30.544 
23:05	14.0	14.0	14.0	75	7.6	0	0	---	0.00	30.544 
23:10	13.8	13.8	13.8	75	7.4	0	0	---	0.00	30.544 
23:15	13.8	13.8	13.8	75	7.4	0	0	---	0.00	30.543 
23:20	13.6	13.6	13.6	75	7.2	0	0	---	0.00	30.543 
23:25	13.5	13.5	13.5	75	7.1	0	0	---	0.00	30.543 
23:30	13.5	13.5	13.5	75	7.1	0	0	---	0.00	30.541 
23:35	13.3	13.3	13.3	75	6.9	0	0	---	0.00	30.541 
23:40	13.1	13.1	13.1	75	6.7	0	0	---	0.00	30.541 
23:45	12.9	12.9	12.9	75	6.5	0	0	---	0.00	30.545 
23:50	12.8	12.8	12.8	76	6.7	0	0	---	0.00	30.545 
23:55	12.6	12.6	12.6	76	6.5	0	0	---	0.00	30.545 

CoCoRaHS
IN-AL-39
A2 Web Hosting
Creative Commons License
GoDaddy
search engine by freefind advanced

loaded 2018-11-17 06:05:17 • last modified 2010-11-18 10:43:29
Privacy PolicyDisclaimer
• wx.awcolley.com is powered by PmWiki v.2002016 •
• all content (unless otherwise noted) © 2018 A W Colley